sensor_id;sensor_type;location;lat;lon;timestamp;P1;durP1;ratioP1;P2;durP2;ratioP2
78664;SDS011;67981;51.022;-2.870;2023-06-22T00:01:05;9.38;;;6.07;;
78664;SDS011;67981;51.022;-2.870;2023-06-22T00:03:31;10.52;;;5.72;;
78664;SDS011;67981;51.022;-2.870;2023-06-22T00:05:56;11.40;;;5.70;;
78664;SDS011;67981;51.022;-2.870;2023-06-22T00:08:22;10.57;;;6.07;;
78664;SDS011;67981;51.022;-2.870;2023-06-22T00:10:47;9.05;;;6.13;;
78664;SDS011;67981;51.022;-2.870;2023-06-22T00:13:13;10.48;;;5.75;;
78664;SDS011;67981;51.022;-2.870;2023-06-22T00:15:39;9.27;;;6.07;;
78664;SDS011;67981;51.022;-2.870;2023-06-22T00:18:09;9.25;;;5.20;;
78664;SDS011;67981;51.022;-2.870;2023-06-22T00:20:35;10.07;;;6.25;;
78664;SDS011;67981;51.022;-2.870;2023-06-22T00:23:04;10.13;;;6.05;;
78664;SDS011;67981;51.022;-2.870;2023-06-22T00:25:37;10.02;;;5.68;;
78664;SDS011;67981;51.022;-2.870;2023-06-22T00:28:05;10.32;;;6.35;;
78664;SDS011;67981;51.022;-2.870;2023-06-22T00:30:31;9.88;;;6.10;;
78664;SDS011;67981;51.022;-2.870;2023-06-22T00:32:57;10.32;;;5.07;;
78664;SDS011;67981;51.022;-2.870;2023-06-22T00:35:23;8.55;;;5.15;;
78664;SDS011;67981;51.022;-2.870;2023-06-22T00:37:54;9.45;;;5.82;;
78664;SDS011;67981;51.022;-2.870;2023-06-22T00:40:26;9.40;;;5.50;;
78664;SDS011;67981;51.022;-2.870;2023-06-22T00:42:55;6.82;;;4.38;;
78664;SDS011;67981;51.022;-2.870;2023-06-22T00:45:21;6.78;;;4.20;;
78664;SDS011;67981;51.022;-2.870;2023-06-22T00:47:48;14.23;;;4.97;;
78664;SDS011;67981;51.022;-2.870;2023-06-22T00:50:18;7.10;;;4.65;;
78664;SDS011;67981;51.022;-2.870;2023-06-22T00:52:48;8.77;;;4.70;;
78664;SDS011;67981;51.022;-2.870;2023-06-22T00:55:16;6.93;;;4.25;;
78664;SDS011;67981;51.022;-2.870;2023-06-22T00:57:43;6.30;;;4.50;;
78664;SDS011;67981;51.022;-2.870;2023-06-22T01:00:10;8.00;;;4.78;;
78664;SDS011;67981;51.022;-2.870;2023-06-22T01:02:43;6.18;;;4.30;;
78664;SDS011;67981;51.022;-2.870;2023-06-22T01:05:14;8.20;;;4.45;;
78664;SDS011;67981;51.022;-2.870;2023-06-22T01:12:48;7.17;;;4.07;;
78664;SDS011;67981;51.022;-2.870;2023-06-22T01:15:44;8.15;;;4.07;;
78664;SDS011;67981;51.022;-2.870;2023-06-22T01:18:14;7.80;;;5.32;;
78664;SDS011;67981;51.022;-2.870;2023-06-22T01:20:41;9.57;;;4.35;;
78664;SDS011;67981;51.022;-2.870;2023-06-22T01:23:24;10.10;;;5.13;;
78664;SDS011;67981;51.022;-2.870;2023-06-22T01:28:50;7.85;;;4.88;;
78664;SDS011;67981;51.022;-2.870;2023-06-22T01:31:20;6.90;;;4.55;;
78664;SDS011;67981;51.022;-2.870;2023-06-22T01:33:50;7.50;;;5.03;;
78664;SDS011;67981;51.022;-2.870;2023-06-22T01:36:21;8.98;;;4.50;;
78664;SDS011;67981;51.022;-2.870;2023-06-22T01:38:49;6.80;;;4.50;;
78664;SDS011;67981;51.022;-2.870;2023-06-22T01:41:15;9.73;;;5.13;;
78664;SDS011;67981;51.022;-2.870;2023-06-22T01:43:42;9.82;;;5.55;;
78664;SDS011;67981;51.022;-2.870;2023-06-22T01:46:08;10.02;;;4.80;;
78664;SDS011;67981;51.022;-2.870;2023-06-22T01:48:35;9.15;;;5.35;;
78664;SDS011;67981;51.022;-2.870;2023-06-22T01:51:01;9.45;;;5.38;;
78664;SDS011;67981;51.022;-2.870;2023-06-22T01:53:27;9.68;;;5.97;;
78664;SDS011;67981;51.022;-2.870;2023-06-22T01:55:52;10.00;;;5.43;;
78664;SDS011;67981;51.022;-2.870;2023-06-22T01:58:18;10.40;;;5.88;;
78664;SDS011;67981;51.022;-2.870;2023-06-22T02:00:51;10.00;;;5.82;;
78664;SDS011;67981;51.022;-2.870;2023-06-22T02:03:26;10.10;;;5.40;;
78664;SDS011;67981;51.022;-2.870;2023-06-22T02:06:15;10.38;;;5.40;;
78664;SDS011;67981;51.022;-2.870;2023-06-22T02:08:53;10.80;;;5.60;;
78664;SDS011;67981;51.022;-2.870;2023-06-22T02:11:22;12.30;;;6.40;;
78664;SDS011;67981;51.022;-2.870;2023-06-22T02:13:52;8.60;;;5.47;;
78664;SDS011;67981;51.022;-2.870;2023-06-22T02:16:18;8.70;;;5.60;;
78664;SDS011;67981;51.022;-2.870;2023-06-22T02:18:47;8.68;;;5.03;;
78664;SDS011;67981;51.022;-2.870;2023-06-22T02:21:17;10.13;;;6.45;;
78664;SDS011;67981;51.022;-2.870;2023-06-22T02:23:45;10.48;;;6.20;;
78664;SDS011;67981;51.022;-2.870;2023-06-22T02:26:11;9.15;;;5.90;;
78664;SDS011;67981;51.022;-2.870;2023-06-22T02:28:37;12.73;;;7.32;;
78664;SDS011;67981;51.022;-2.870;2023-06-22T02:31:02;10.35;;;6.78;;
78664;SDS011;67981;51.022;-2.870;2023-06-22T02:33:28;13.63;;;6.45;;
78664;SDS011;67981;51.022;-2.870;2023-06-22T02:35:53;12.82;;;8.25;;
78664;SDS011;67981;51.022;-2.870;2023-06-22T02:38:19;11.15;;;6.50;;
78664;SDS011;67981;51.022;-2.870;2023-06-22T02:40:44;11.88;;;6.85;;
78664;SDS011;67981;51.022;-2.870;2023-06-22T02:43:10;13.05;;;7.22;;
78664;SDS011;67981;51.022;-2.870;2023-06-22T02:45:36;12.45;;;7.40;;
78664;SDS011;67981;51.022;-2.870;2023-06-22T02:48:01;12.90;;;7.20;;
78664;SDS011;67981;51.022;-2.870;2023-06-22T02:50:27;11.88;;;7.30;;
78664;SDS011;67981;51.022;-2.870;2023-06-22T02:52:52;13.45;;;8.00;;
78664;SDS011;67981;51.022;-2.870;2023-06-22T02:55:18;11.98;;;6.45;;
78664;SDS011;67981;51.022;-2.870;2023-06-22T02:57:43;14.20;;;8.27;;
78664;SDS011;67981;51.022;-2.870;2023-06-22T03:00:10;16.85;;;7.47;;
78664;SDS011;67981;51.022;-2.870;2023-06-22T03:02:46;13.30;;;7.47;;
78664;SDS011;67981;51.022;-2.870;2023-06-22T03:05:13;17.98;;;7.63;;
78664;SDS011;67981;51.022;-2.870;2023-06-22T03:07:40;16.20;;;8.98;;
78664;SDS011;67981;51.022;-2.870;2023-06-22T03:10:07;9.98;;;6.63;;
78664;SDS011;67981;51.022;-2.870;2023-06-22T03:12:39;15.07;;;7.38;;
78664;SDS011;67981;51.022;-2.870;2023-06-22T03:15:06;13.18;;;7.45;;
78664;SDS011;67981;51.022;-2.870;2023-06-22T03:17:33;9.77;;;6.60;;
78664;SDS011;67981;51.022;-2.870;2023-06-22T03:20:00;11.10;;;6.90;;
78664;SDS011;67981;51.022;-2.870;2023-06-22T03:22:26;12.13;;;6.38;;
78664;SDS011;67981;51.022;-2.870;2023-06-22T03:24:51;10.68;;;6.72;;
78664;SDS011;67981;51.022;-2.870;2023-06-22T03:27:17;12.13;;;6.13;;
78664;SDS011;67981;51.022;-2.870;2023-06-22T03:29:43;9.80;;;6.25;;
78664;SDS011;67981;51.022;-2.870;2023-06-22T03:32:09;9.55;;;6.22;;
78664;SDS011;67981;51.022;-2.870;2023-06-22T03:34:35;10.75;;;6.10;;
78664;SDS011;67981;51.022;-2.870;2023-06-22T03:37:03;11.75;;;6.43;;
78664;SDS011;67981;51.022;-2.870;2023-06-22T03:39:29;10.60;;;5.90;;
78664;SDS011;67981;51.022;-2.870;2023-06-22T03:41:54;9.18;;;5.43;;
78664;SDS011;67981;51.022;-2.870;2023-06-22T03:44:19;8.70;;;5.25;;
78664;SDS011;67981;51.022;-2.870;2023-06-22T03:46:45;8.77;;;5.23;;
78664;SDS011;67981;51.022;-2.870;2023-06-22T03:49:10;9.83;;;5.97;;
78664;SDS011;67981;51.022;-2.870;2023-06-22T03:51:35;10.45;;;5.85;;
78664;SDS011;67981;51.022;-2.870;2023-06-22T03:54:01;8.38;;;5.15;;
78664;SDS011;67981;51.022;-2.870;2023-06-22T03:56:26;13.23;;;5.70;;
78664;SDS011;67981;51.022;-2.870;2023-06-22T03:58:51;10.15;;;5.45;;
78664;SDS011;67981;51.022;-2.870;2023-06-22T04:01:17;11.18;;;5.40;;
78664;SDS011;67981;51.022;-2.870;2023-06-22T04:03:42;8.90;;;5.55;;
78664;SDS011;67981;51.022;-2.870;2023-06-22T04:06:08;9.65;;;5.82;;
78664;SDS011;67981;51.022;-2.870;2023-06-22T04:08:33;8.13;;;5.45;;
78664;SDS011;67981;51.022;-2.870;2023-06-22T04:10:59;7.28;;;4.72;;
78664;SDS011;67981;51.022;-2.870;2023-06-22T04:13:24;9.25;;;4.95;;
78664;SDS011;67981;51.022;-2.870;2023-06-22T04:15:50;11.20;;;5.67;;
78664;SDS011;67981;51.022;-2.870;2023-06-22T04:18:15;7.68;;;4.65;;
78664;SDS011;67981;51.022;-2.870;2023-06-22T04:20:40;9.23;;;5.15;;
78664;SDS011;67981;51.022;-2.870;2023-06-22T04:23:06;6.93;;;4.40;;
78664;SDS011;67981;51.022;-2.870;2023-06-22T04:25:31;8.23;;;4.63;;
78664;SDS011;67981;51.022;-2.870;2023-06-22T04:27:57;6.50;;;4.40;;
78664;SDS011;67981;51.022;-2.870;2023-06-22T04:30:22;7.20;;;4.80;;
78664;SDS011;67981;51.022;-2.870;2023-06-22T04:32:47;9.85;;;4.93;;
78664;SDS011;67981;51.022;-2.870;2023-06-22T04:35:21;7.25;;;5.03;;
78664;SDS011;67981;51.022;-2.870;2023-06-22T04:37:47;10.57;;;5.10;;
78664;SDS011;67981;51.022;-2.870;2023-06-22T04:40:14;10.57;;;5.40;;
78664;SDS011;67981;51.022;-2.870;2023-06-22T04:42:40;8.10;;;4.80;;
78664;SDS011;67981;51.022;-2.870;2023-06-22T04:45:05;12.38;;;5.65;;
78664;SDS011;67981;51.022;-2.870;2023-06-22T04:47:31;8.23;;;4.47;;
78664;SDS011;67981;51.022;-2.870;2023-06-22T04:49:56;7.00;;;4.22;;
78664;SDS011;67981;51.022;-2.870;2023-06-22T04:52:22;8.10;;;4.80;;
78664;SDS011;67981;51.022;-2.870;2023-06-22T04:54:49;8.15;;;4.72;;
78664;SDS011;67981;51.022;-2.870;2023-06-22T04:57:20;7.38;;;4.07;;
78664;SDS011;67981;51.022;-2.870;2023-06-22T04:59:46;9.80;;;4.82;;
78664;SDS011;67981;51.022;-2.870;2023-06-22T05:02:11;7.13;;;4.50;;
78664;SDS011;67981;51.022;-2.870;2023-06-22T05:04:37;6.03;;;4.18;;
78664;SDS011;67981;51.022;-2.870;2023-06-22T05:07:03;7.20;;;4.15;;
78664;SDS011;67981;51.022;-2.870;2023-06-22T05:09:29;7.13;;;4.30;;
78664;SDS011;67981;51.022;-2.870;2023-06-22T05:11:55;6.88;;;4.07;;
78664;SDS011;67981;51.022;-2.870;2023-06-22T05:14:25;7.18;;;3.78;;
78664;SDS011;67981;51.022;-2.870;2023-06-22T05:16:50;13.82;;;5.00;;
78664;SDS011;67981;51.022;-2.870;2023-06-22T05:19:17;7.70;;;4.30;;
78664;SDS011;67981;51.022;-2.870;2023-06-22T05:21:45;8.23;;;3.85;;
78664;SDS011;67981;51.022;-2.870;2023-06-22T05:24:10;6.97;;;4.35;;
78664;SDS011;67981;51.022;-2.870;2023-06-22T05:26:36;7.70;;;4.38;;
78664;SDS011;67981;51.022;-2.870;2023-06-22T05:29:02;8.15;;;4.40;;
78664;SDS011;67981;51.022;-2.870;2023-06-22T05:31:28;7.28;;;4.57;;
78664;SDS011;67981;51.022;-2.870;2023-06-22T05:33:54;6.75;;;4.10;;
78664;SDS011;67981;51.022;-2.870;2023-06-22T05:36:20;7.75;;;4.32;;
78664;SDS011;67981;51.022;-2.870;2023-06-22T05:38:46;7.25;;;4.10;;
78664;SDS011;67981;51.022;-2.870;2023-06-22T05:41:12;6.78;;;4.45;;
78664;SDS011;67981;51.022;-2.870;2023-06-22T05:43:37;9.40;;;4.72;;
78664;SDS011;67981;51.022;-2.870;2023-06-22T05:46:03;7.75;;;3.90;;
78664;SDS011;67981;51.022;-2.870;2023-06-22T05:48:29;7.82;;;4.25;;
78664;SDS011;67981;51.022;-2.870;2023-06-22T05:50:55;7.40;;;3.88;;
78664;SDS011;67981;51.022;-2.870;2023-06-22T05:53:20;7.90;;;4.38;;
78664;SDS011;67981;51.022;-2.870;2023-06-22T05:55:46;5.90;;;4.32;;
78664;SDS011;67981;51.022;-2.870;2023-06-22T05:58:11;6.07;;;4.75;;
78664;SDS011;67981;51.022;-2.870;2023-06-22T06:00:38;9.23;;;4.10;;
78664;SDS011;67981;51.022;-2.870;2023-06-22T06:03:04;9.60;;;3.85;;
78664;SDS011;67981;51.022;-2.870;2023-06-22T06:05:30;5.93;;;3.75;;
78664;SDS011;67981;51.022;-2.870;2023-06-22T06:07:56;7.72;;;4.20;;
78664;SDS011;67981;51.022;-2.870;2023-06-22T06:10:22;6.05;;;3.78;;
78664;SDS011;67981;51.022;-2.870;2023-06-22T06:12:47;6.20;;;4.10;;
78664;SDS011;67981;51.022;-2.870;2023-06-22T06:15:12;13.18;;;4.72;;
78664;SDS011;67981;51.022;-2.870;2023-06-22T06:17:50;8.93;;;4.97;;
78664;SDS011;67981;51.022;-2.870;2023-06-22T06:20:24;7.57;;;5.22;;
78664;SDS011;67981;51.022;-2.870;2023-06-22T06:22:50;7.78;;;4.82;;
78664;SDS011;67981;51.022;-2.870;2023-06-22T06:25:16;8.93;;;4.60;;
78664;SDS011;67981;51.022;-2.870;2023-06-22T06:27:43;5.65;;;4.22;;
78664;SDS011;67981;51.022;-2.870;2023-06-22T06:30:12;5.72;;;3.60;;
78664;SDS011;67981;51.022;-2.870;2023-06-22T06:32:38;6.45;;;3.65;;
78664;SDS011;67981;51.022;-2.870;2023-06-22T06:35:05;6.55;;;3.92;;
78664;SDS011;67981;51.022;-2.870;2023-06-22T06:37:31;11.02;;;4.35;;
78664;SDS011;67981;51.022;-2.870;2023-06-22T06:39:57;8.52;;;4.25;;
78664;SDS011;67981;51.022;-2.870;2023-06-22T06:42:22;6.82;;;4.28;;
78664;SDS011;67981;51.022;-2.870;2023-06-22T06:44:49;8.27;;;4.43;;
78664;SDS011;67981;51.022;-2.870;2023-06-22T06:47:15;7.68;;;3.90;;
78664;SDS011;67981;51.022;-2.870;2023-06-22T06:49:41;10.02;;;4.43;;
78664;SDS011;67981;51.022;-2.870;2023-06-22T06:52:07;9.63;;;5.22;;
78664;SDS011;67981;51.022;-2.870;2023-06-22T06:54:33;8.95;;;5.30;;
78664;SDS011;67981;51.022;-2.870;2023-06-22T06:56:58;8.87;;;5.53;;
78664;SDS011;67981;51.022;-2.870;2023-06-22T06:59:23;12.33;;;5.63;;
78664;SDS011;67981;51.022;-2.870;2023-06-22T07:01:49;8.75;;;5.75;;
78664;SDS011;67981;51.022;-2.870;2023-06-22T07:04:14;8.53;;;4.80;;
78664;SDS011;67981;51.022;-2.870;2023-06-22T07:06:39;9.45;;;4.65;;
78664;SDS011;67981;51.022;-2.870;2023-06-22T07:09:05;10.43;;;5.43;;
78664;SDS011;67981;51.022;-2.870;2023-06-22T07:11:30;8.63;;;5.65;;
78664;SDS011;67981;51.022;-2.870;2023-06-22T07:13:55;8.05;;;4.93;;
78664;SDS011;67981;51.022;-2.870;2023-06-22T07:16:21;11.87;;;4.87;;
78664;SDS011;67981;51.022;-2.870;2023-06-22T07:18:46;8.48;;;4.22;;
78664;SDS011;67981;51.022;-2.870;2023-06-22T07:21:12;9.63;;;4.73;;
78664;SDS011;67981;51.022;-2.870;2023-06-22T07:23:37;8.02;;;4.22;;
78664;SDS011;67981;51.022;-2.870;2023-06-22T07:26:02;8.20;;;5.37;;
78664;SDS011;67981;51.022;-2.870;2023-06-22T07:28:28;10.95;;;5.38;;
78664;SDS011;67981;51.022;-2.870;2023-06-22T07:33:21;6.55;;;4.63;;
78664;SDS011;67981;51.022;-2.870;2023-06-22T07:35:47;7.20;;;5.13;;
78664;SDS011;67981;51.022;-2.870;2023-06-22T07:38:13;7.03;;;4.90;;
78664;SDS011;67981;51.022;-2.870;2023-06-22T07:40:39;8.90;;;5.85;;
78664;SDS011;67981;51.022;-2.870;2023-06-22T07:43:06;9.45;;;5.13;;
78664;SDS011;67981;51.022;-2.870;2023-06-22T07:45:32;9.02;;;6.88;;
78664;SDS011;67981;51.022;-2.870;2023-06-22T07:47:59;10.35;;;6.22;;
78664;SDS011;67981;51.022;-2.870;2023-06-22T07:50:25;8.52;;;5.95;;
78664;SDS011;67981;51.022;-2.870;2023-06-22T07:52:50;8.98;;;5.88;;
78664;SDS011;67981;51.022;-2.870;2023-06-22T07:55:17;7.80;;;4.90;;
78664;SDS011;67981;51.022;-2.870;2023-06-22T07:57:43;8.07;;;4.82;;
78664;SDS011;67981;51.022;-2.870;2023-06-22T08:00:08;7.10;;;4.60;;
78664;SDS011;67981;51.022;-2.870;2023-06-22T08:02:44;9.05;;;5.65;;
78664;SDS011;67981;51.022;-2.870;2023-06-22T08:05:11;7.28;;;5.15;;
78664;SDS011;67981;51.022;-2.870;2023-06-22T08:07:37;7.63;;;5.30;;
78664;SDS011;67981;51.022;-2.870;2023-06-22T08:10:04;7.13;;;5.45;;
78664;SDS011;67981;51.022;-2.870;2023-06-22T08:12:30;9.40;;;6.28;;
78664;SDS011;67981;51.022;-2.870;2023-06-22T08:14:55;10.07;;;6.18;;
78664;SDS011;67981;51.022;-2.870;2023-06-22T08:17:22;7.97;;;5.85;;
78664;SDS011;67981;51.022;-2.870;2023-06-22T08:19:48;15.13;;;7.50;;
78664;SDS011;67981;51.022;-2.870;2023-06-22T08:22:13;10.07;;;7.45;;
78664;SDS011;67981;51.022;-2.870;2023-06-22T08:24:38;9.35;;;6.85;;
78664;SDS011;67981;51.022;-2.870;2023-06-22T08:27:06;9.85;;;6.20;;
78664;SDS011;67981;51.022;-2.870;2023-06-22T08:29:33;8.35;;;6.43;;
78664;SDS011;67981;51.022;-2.870;2023-06-22T08:31:59;10.18;;;6.97;;
78664;SDS011;67981;51.022;-2.870;2023-06-22T08:34:24;9.90;;;6.93;;
78664;SDS011;67981;51.022;-2.870;2023-06-22T08:36:52;9.98;;;6.18;;
78664;SDS011;67981;51.022;-2.870;2023-06-22T08:39:19;8.48;;;6.28;;
78664;SDS011;67981;51.022;-2.870;2023-06-22T08:41:45;9.80;;;5.93;;
78664;SDS011;67981;51.022;-2.870;2023-06-22T08:44:13;11.93;;;8.85;;
78664;SDS011;67981;51.022;-2.870;2023-06-22T08:46:40;15.07;;;10.50;;
78664;SDS011;67981;51.022;-2.870;2023-06-22T08:49:06;10.15;;;8.05;;
78664;SDS011;67981;51.022;-2.870;2023-06-22T08:51:32;10.40;;;6.90;;
78664;SDS011;67981;51.022;-2.870;2023-06-22T08:54:07;12.32;;;7.63;;
78664;SDS011;67981;51.022;-2.870;2023-06-22T08:56:32;10.70;;;6.78;;
78664;SDS011;67981;51.022;-2.870;2023-06-22T08:58:58;11.07;;;6.85;;
78664;SDS011;67981;51.022;-2.870;2023-06-22T09:01:25;10.93;;;7.25;;
78664;SDS011;67981;51.022;-2.870;2023-06-22T09:03:50;11.50;;;7.28;;
78664;SDS011;67981;51.022;-2.870;2023-06-22T09:06:20;11.90;;;6.93;;
78664;SDS011;67981;51.022;-2.870;2023-06-22T09:08:46;8.95;;;6.70;;
78664;SDS011;67981;51.022;-2.870;2023-06-22T09:11:12;13.60;;;6.90;;
78664;SDS011;67981;51.022;-2.870;2023-06-22T09:13:38;9.85;;;6.65;;
78664;SDS011;67981;51.022;-2.870;2023-06-22T09:16:03;8.73;;;5.90;;
78664;SDS011;67981;51.022;-2.870;2023-06-22T09:18:29;8.55;;;6.10;;
78664;SDS011;67981;51.022;-2.870;2023-06-22T09:20:54;8.85;;;5.15;;
78664;SDS011;67981;51.022;-2.870;2023-06-22T09:23:19;6.85;;;4.55;;
78664;SDS011;67981;51.022;-2.870;2023-06-22T09:25:45;7.22;;;5.07;;
78664;SDS011;67981;51.022;-2.870;2023-06-22T09:28:12;6.95;;;3.92;;
78664;SDS011;67981;51.022;-2.870;2023-06-22T09:30:38;9.75;;;4.35;;
78664;SDS011;67981;51.022;-2.870;2023-06-22T09:33:03;6.47;;;4.63;;
78664;SDS011;67981;51.022;-2.870;2023-06-22T09:35:28;7.15;;;4.55;;
78664;SDS011;67981;51.022;-2.870;2023-06-22T09:37:54;7.35;;;4.05;;
78664;SDS011;67981;51.022;-2.870;2023-06-22T09:40:19;7.07;;;4.25;;
78664;SDS011;67981;51.022;-2.870;2023-06-22T09:42:45;5.35;;;3.25;;
78664;SDS011;67981;51.022;-2.870;2023-06-22T09:45:10;7.32;;;3.83;;
78664;SDS011;67981;51.022;-2.870;2023-06-22T09:47:36;5.18;;;3.25;;
78664;SDS011;67981;51.022;-2.870;2023-06-22T09:50:03;5.82;;;3.58;;
78664;SDS011;67981;51.022;-2.870;2023-06-22T09:52:29;5.78;;;3.25;;
78664;SDS011;67981;51.022;-2.870;2023-06-22T09:54:54;7.85;;;3.60;;
78664;SDS011;67981;51.022;-2.870;2023-06-22T09:57:19;6.35;;;3.58;;
78664;SDS011;67981;51.022;-2.870;2023-06-22T09:59:45;4.07;;;2.65;;
78664;SDS011;67981;51.022;-2.870;2023-06-22T10:02:10;6.20;;;3.90;;
78664;SDS011;67981;51.022;-2.870;2023-06-22T10:04:35;6.80;;;3.50;;
78664;SDS011;67981;51.022;-2.870;2023-06-22T10:07:01;4.80;;;3.28;;
78664;SDS011;67981;51.022;-2.870;2023-06-22T10:09:27;4.68;;;3.38;;
78664;SDS011;67981;51.022;-2.870;2023-06-22T10:11:53;6.55;;;3.63;;
78664;SDS011;67981;51.022;-2.870;2023-06-22T10:14:18;8.60;;;3.67;;
78664;SDS011;67981;51.022;-2.870;2023-06-22T10:16:44;8.00;;;4.15;;
78664;SDS011;67981;51.022;-2.870;2023-06-22T10:19:09;5.05;;;3.03;;
78664;SDS011;67981;51.022;-2.870;2023-06-22T10:21:35;5.32;;;3.50;;
78664;SDS011;67981;51.022;-2.870;2023-06-22T10:24:01;4.20;;;2.75;;
78664;SDS011;67981;51.022;-2.870;2023-06-22T10:26:34;6.25;;;2.83;;
78664;SDS011;67981;51.022;-2.870;2023-06-22T10:29:00;5.07;;;3.45;;
78664;SDS011;67981;51.022;-2.870;2023-06-22T10:31:26;5.75;;;3.38;;
78664;SDS011;67981;51.022;-2.870;2023-06-22T10:33:52;6.43;;;3.50;;
78664;SDS011;67981;51.022;-2.870;2023-06-22T10:36:18;6.45;;;3.05;;
78664;SDS011;67981;51.022;-2.870;2023-06-22T10:38:44;6.85;;;3.17;;
78664;SDS011;67981;51.022;-2.870;2023-06-22T10:41:10;6.45;;;3.40;;
78664;SDS011;67981;51.022;-2.870;2023-06-22T10:43:35;3.80;;;2.80;;
78664;SDS011;67981;51.022;-2.870;2023-06-22T10:46:01;5.30;;;3.35;;
78664;SDS011;67981;51.022;-2.870;2023-06-22T10:48:26;5.40;;;2.90;;
78664;SDS011;67981;51.022;-2.870;2023-06-22T10:50:52;5.68;;;3.22;;
78664;SDS011;67981;51.022;-2.870;2023-06-22T10:53:18;4.95;;;3.40;;
78664;SDS011;67981;51.022;-2.870;2023-06-22T10:55:43;4.50;;;3.22;;
78664;SDS011;67981;51.022;-2.870;2023-06-22T10:58:09;5.40;;;2.38;;
78664;SDS011;67981;51.022;-2.870;2023-06-22T11:00:34;6.22;;;3.35;;
78664;SDS011;67981;51.022;-2.870;2023-06-22T11:03:00;4.75;;;3.10;;
78664;SDS011;67981;51.022;-2.870;2023-06-22T11:05:25;5.68;;;3.33;;
78664;SDS011;67981;51.022;-2.870;2023-06-22T11:07:50;6.43;;;3.30;;
78664;SDS011;67981;51.022;-2.870;2023-06-22T11:10:16;6.38;;;3.05;;
78664;SDS011;67981;51.022;-2.870;2023-06-22T11:12:41;4.22;;;3.08;;
78664;SDS011;67981;51.022;-2.870;2023-06-22T11:15:08;5.22;;;2.60;;
78664;SDS011;67981;51.022;-2.870;2023-06-22T11:17:34;4.28;;;2.83;;
78664;SDS011;67981;51.022;-2.870;2023-06-22T11:19:59;5.43;;;3.00;;
78664;SDS011;67981;51.022;-2.870;2023-06-22T11:22:25;5.70;;;2.85;;
78664;SDS011;67981;51.022;-2.870;2023-06-22T11:24:50;4.50;;;3.30;;
78664;SDS011;67981;51.022;-2.870;2023-06-22T11:27:16;4.65;;;2.80;;
78664;SDS011;67981;51.022;-2.870;2023-06-22T11:29:41;4.60;;;2.90;;
78664;SDS011;67981;51.022;-2.870;2023-06-22T11:32:07;4.07;;;2.65;;
78664;SDS011;67981;51.022;-2.870;2023-06-22T11:34:32;4.45;;;2.55;;
78664;SDS011;67981;51.022;-2.870;2023-06-22T11:36:58;4.25;;;2.90;;
78664;SDS011;67981;51.022;-2.870;2023-06-22T11:39:23;5.30;;;3.13;;
78664;SDS011;67981;51.022;-2.870;2023-06-22T11:41:48;4.87;;;2.80;;
78664;SDS011;67981;51.022;-2.870;2023-06-22T11:44:14;3.50;;;2.70;;
78664;SDS011;67981;51.022;-2.870;2023-06-22T11:46:39;6.00;;;3.25;;
78664;SDS011;67981;51.022;-2.870;2023-06-22T11:55:55;4.80;;;2.33;;
78664;SDS011;67981;51.022;-2.870;2023-06-22T11:58:21;3.60;;;2.15;;
78664;SDS011;67981;51.022;-2.870;2023-06-22T12:04:01;2.88;;;1.92;;
78664;SDS011;67981;51.022;-2.870;2023-06-22T12:13:23;3.05;;;2.53;;
78664;SDS011;67981;51.022;-2.870;2023-06-22T12:54:49;5.25;;;2.28;;
78664;SDS011;67981;51.022;-2.870;2023-06-22T12:57:30;4.15;;;3.33;;
78664;SDS011;67981;51.022;-2.870;2023-06-22T13:04:22;3.20;;;2.20;;
78664;SDS011;67981;51.022;-2.870;2023-06-22T13:07:38;5.53;;;3.00;;
78664;SDS011;67981;51.022;-2.870;2023-06-22T13:14:03;3.65;;;2.25;;
78664;SDS011;67981;51.022;-2.870;2023-06-22T13:54:58;3.63;;;2.10;;
78664;SDS011;67981;51.022;-2.870;2023-06-22T13:57:24;4.15;;;2.28;;
78664;SDS011;67981;51.022;-2.870;2023-06-22T14:03:18;2.47;;;1.60;;
78664;SDS011;67981;51.022;-2.870;2023-06-22T14:05:50;3.47;;;2.00;;
78664;SDS011;67981;51.022;-2.870;2023-06-22T14:08:19;4.60;;;1.80;;
78664;SDS011;67981;51.022;-2.870;2023-06-22T14:10:44;12.73;;;1.83;;
78664;SDS011;67981;51.022;-2.870;2023-06-22T14:13:10;4.13;;;2.17;;
78664;SDS011;67981;51.022;-2.870;2023-06-22T14:15:47;4.60;;;1.95;;
78664;SDS011;67981;51.022;-2.870;2023-06-22T14:58:13;3.25;;;2.17;;
78664;SDS011;67981;51.022;-2.870;2023-06-22T15:00:38;2.80;;;1.90;;
78664;SDS011;67981;51.022;-2.870;2023-06-22T15:03:06;4.05;;;1.85;;
78664;SDS011;67981;51.022;-2.870;2023-06-22T15:05:32;2.60;;;1.58;;
78664;SDS011;67981;51.022;-2.870;2023-06-22T15:07:58;2.95;;;1.58;;
78664;SDS011;67981;51.022;-2.870;2023-06-22T15:10:23;3.53;;;1.60;;
78664;SDS011;67981;51.022;-2.870;2023-06-22T15:12:49;3.47;;;1.45;;
78664;SDS011;67981;51.022;-2.870;2023-06-22T15:15:15;3.05;;;1.40;;
78664;SDS011;67981;51.022;-2.870;2023-06-22T15:17:40;3.83;;;1.52;;
78664;SDS011;67981;51.022;-2.870;2023-06-22T15:20:06;2.83;;;1.65;;
78664;SDS011;67981;51.022;-2.870;2023-06-22T15:22:31;4.78;;;1.58;;
78664;SDS011;67981;51.022;-2.870;2023-06-22T15:24:57;2.10;;;1.20;;
78664;SDS011;67981;51.022;-2.870;2023-06-22T15:27:23;3.60;;;1.67;;
78664;SDS011;67981;51.022;-2.870;2023-06-22T15:29:49;4.32;;;1.70;;
78664;SDS011;67981;51.022;-2.870;2023-06-22T15:32:14;3.10;;;1.52;;
78664;SDS011;67981;51.022;-2.870;2023-06-22T15:34:40;3.75;;;1.75;;
78664;SDS011;67981;51.022;-2.870;2023-06-22T15:37:05;3.15;;;1.55;;
78664;SDS011;67981;51.022;-2.870;2023-06-22T15:39:31;5.85;;;1.60;;
78664;SDS011;67981;51.022;-2.870;2023-06-22T15:41:56;2.85;;;1.35;;
78664;SDS011;67981;51.022;-2.870;2023-06-22T15:44:23;3.50;;;1.60;;
78664;SDS011;67981;51.022;-2.870;2023-06-22T15:46:49;2.72;;;1.40;;
78664;SDS011;67981;51.022;-2.870;2023-06-22T15:49:17;3.28;;;1.60;;
78664;SDS011;67981;51.022;-2.870;2023-06-22T15:54:08;2.78;;;1.25;;
78664;SDS011;67981;51.022;-2.870;2023-06-22T15:56:34;3.67;;;1.60;;
78664;SDS011;67981;51.022;-2.870;2023-06-22T15:58:59;2.90;;;1.50;;
78664;SDS011;67981;51.022;-2.870;2023-06-22T16:01:24;2.33;;;1.42;;
78664;SDS011;67981;51.022;-2.870;2023-06-22T16:03:50;2.63;;;1.45;;
78664;SDS011;67981;51.022;-2.870;2023-06-22T16:06:16;2.70;;;1.70;;
78664;SDS011;67981;51.022;-2.870;2023-06-22T16:08:41;4.32;;;1.77;;
78664;SDS011;67981;51.022;-2.870;2023-06-22T16:11:06;4.93;;;2.05;;
78664;SDS011;67981;51.022;-2.870;2023-06-22T16:13:32;2.95;;;1.75;;
78664;SDS011;67981;51.022;-2.870;2023-06-22T16:15:58;3.13;;;1.48;;
78664;SDS011;67981;51.022;-2.870;2023-06-22T16:18:23;2.72;;;1.65;;
78664;SDS011;67981;51.022;-2.870;2023-06-22T16:20:49;3.75;;;2.20;;
78664;SDS011;67981;51.022;-2.870;2023-06-22T16:23:14;4.75;;;1.60;;
78664;SDS011;67981;51.022;-2.870;2023-06-22T16:25:40;3.00;;;2.05;;
78664;SDS011;67981;51.022;-2.870;2023-06-22T16:28:05;3.65;;;1.63;;
78664;SDS011;67981;51.022;-2.870;2023-06-22T16:30:30;3.73;;;1.50;;
78664;SDS011;67981;51.022;-2.870;2023-06-22T16:32:57;3.17;;;1.52;;
78664;SDS011;67981;51.022;-2.870;2023-06-22T16:35:27;4.47;;;1.80;;
78664;SDS011;67981;51.022;-2.870;2023-06-22T16:37:53;3.95;;;1.95;;
78664;SDS011;67981;51.022;-2.870;2023-06-22T16:40:20;3.67;;;2.15;;
78664;SDS011;67981;51.022;-2.870;2023-06-22T16:42:46;3.08;;;1.73;;
78664;SDS011;67981;51.022;-2.870;2023-06-22T16:45:15;3.30;;;1.98;;
78664;SDS011;67981;51.022;-2.870;2023-06-22T16:47:41;3.53;;;1.90;;
78664;SDS011;67981;51.022;-2.870;2023-06-22T16:50:08;3.60;;;2.03;;
78664;SDS011;67981;51.022;-2.870;2023-06-22T16:52:34;4.80;;;1.95;;
78664;SDS011;67981;51.022;-2.870;2023-06-22T16:54:59;3.72;;;2.10;;
78664;SDS011;67981;51.022;-2.870;2023-06-22T16:57:25;4.05;;;1.80;;
78664;SDS011;67981;51.022;-2.870;2023-06-22T16:59:54;3.88;;;2.13;;
78664;SDS011;67981;51.022;-2.870;2023-06-22T17:02:19;4.13;;;1.83;;
78664;SDS011;67981;51.022;-2.870;2023-06-22T17:04:47;3.90;;;1.80;;
78664;SDS011;67981;51.022;-2.870;2023-06-22T17:07:17;3.63;;;1.80;;